Accueil
METAR-TAF:

METAR-TAF

Aéroports :

Düsseldorf, Allemagne

Aéroport international de Düsseldorf

latitude: 51-18N, longitude: 006-46E, altitude: 45 m

Observation

Le bulletin a été fait il y a 30 minutes, à 01:20 UTC
Vent 11 kt de sud/sud-ouest
Température 15°C
Humidité 77%
Pression 1016 hPa
Visibilité 10 km ou plus
pas de nuages en-dessous de 1500 mètres et pas de cumulonimbus.

METAR: EDDL 240120Z 21011KT CAVOK 15/11 Q1016 NOSIG

Heure: 03:50 (01:50 UTC)

Prévision

Le bulletin a été fait il y a 1 heure et 57 minutes, à 23:53 UTC
Prévision valable du 24 à 00 UTC au 25 à 06 UTC
Vent 11 kt de sud-ouest
Visibilité 10 km ou plus
pas de nuages en-dessous de 1500 mètres et pas de cumulonimbus.
Temporairement
du 24 à 09 UTC au 24 à 17 UTC
Vent 15 kt de ouest/sud-ouest avec des rafales jusqu'à 25 kt

TAF: EDDL 232353Z 2400/2506 23011KT CAVOK TEMPO 2409/2417 25015G25KT

Observations et prévisions météorologiques de plus de 4000 aéroports (messages METAR et TAF).

Les stations disponibles sont représentées par des disques jaunes et rouges sur la carte.

Passer la souris dessus pour voir le nom de la station.

Cliquer dessus pour voir les observations et prévisions météorologiques.

Pour changer de carte: cliquez sur les boutons verts avec une croix noire pour zoomer, sur le bouton vert avec un tiret pour effectuer un zoom arrière, ou sur les flèches vertes pour les cartes adjacentes.


METAR-TAF: